Time;durP1;ratioP1;P1;durP2;ratioP2;P2;SDS_P1;SDS_P2;PMS_P1;PMS_P2;Temp;Humidity;BMP_temperature;BMP_pressure;BME280_temperature;BME280_humidity;BME280_pressure;Samples;Min_cycle;Max_cycle;Signal;HPM_P1;HPM_P2
2021/01/29 00:00:31;;;;;;;14.07;12.83;;;;;;;-0.05;95.22;99197.03;5010871;28;20219;-73
2021/01/29 00:02:58;;;;;;;13.10;11.90;;;;;;;0.06;95.04;99197.81;5010835;28;20415;-74
2021/01/29 00:05:27;;;;;;;12.60;11.50;;;;;;;0.22;95.02;99200.19;5014537;28;20439;-74
2021/01/29 00:07:53;;;;;;;12.90;11.70;;;;;;;0.21;94.75;99203.16;5010118;28;20436;-73
2021/01/29 00:10:18;;;;;;;13.70;12.43;;;;;;;0.03;94.88;99193.81;5010818;28;20411;-74
2021/01/29 00:12:44;;;;;;;14.17;12.97;;;;;;;-0.03;94.62;99181.47;5027662;28;20215;-73
2021/01/29 00:15:14;;;;;;;15.63;14.03;;;;;;;-0.07;94.57;99172.34;5030573;28;20176;-73
2021/01/29 00:17:40;;;;;;;15.37;12.97;;;;;;;0.02;95.31;99167.22;5030045;28;20212;-74
2021/01/29 00:20:09;;;;;;;14.67;13.33;;;;;;;0.14;95.35;99168.50;5030572;28;20843;-73
2021/01/29 00:22:34;;;;;;;14.20;12.87;;;;;;;0.23;95.04;99171.44;5030329;28;20176;-74
2021/01/29 00:24:59;;;;;;;14.63;13.23;;;;;;;0.26;94.77;99165.50;5030496;28;20490;-73
2021/01/29 00:27:25;;;;;;;14.63;13.30;;;;;;;0.37;94.28;99166.28;5029867;28;20279;-73
2021/01/29 00:29:50;;;;;;;16.27;13.77;;;;;;;0.33;94.01;99155.28;5015698;28;20525;-73
2021/01/29 00:32:15;;;;;;;15.93;14.53;;;;;;;0.21;94.23;99170.91;5011089;28;20707;-73
2021/01/29 00:34:41;;;;;;;17.03;15.43;;;;;;;0.00;94.83;99172.88;5014590;28;20187;-74
2021/01/29 00:37:06;;;;;;;16.90;15.13;;;;;;;-0.06;95.37;99163.22;5014209;28;20176;-73
2021/01/29 00:39:32;;;;;;;18.57;15.33;;;;;;;-0.09;95.82;99159.19;5014492;28;20198;-73
2021/01/29 00:41:57;;;;;;;21.53;15.07;;;;;;;-0.12;96.15;99154.38;5014444;28;20219;-74
2021/01/29 00:44:22;;;;;;;17.73;15.83;;;;;;;-0.11;95.87;99139.09;5014601;28;20269;-73
2021/01/29 00:46:47;;;;;;;18.00;16.10;;;;;;;-0.15;95.97;99135.31;5014068;28;20185;-73
2021/01/29 00:49:13;;;;;;;18.60;16.53;;;;;;;-0.17;96.15;99132.91;5014419;28;20217;-73
2021/01/29 00:51:38;;;;;;;21.50;18.20;;;;;;;-0.19;97.07;99135.06;5014184;28;20212;-73
2021/01/29 00:54:03;;;;;;;25.77;17.57;;;;;;;-0.18;96.85;99130.50;5014115;28;20200;-73
2021/01/29 00:56:29;;;;;;;24.53;18.10;;;;;;;-0.15;97.20;99130.75;5014131;28;20535;-73
2021/01/29 00:58:54;;;;;;;21.73;18.37;;;;;;;-0.18;97.06;99125.13;5014131;28;20628;-73
2021/01/29 01:01:19;;;;;;;21.23;17.47;;;;;;;-0.09;96.91;99132.38;5014139;28;20180;-74
2021/01/29 01:03:45;;;;;;;20.87;16.57;;;;;;;-0.14;97.10;99135.06;5013922;28;20179;-73
2021/01/29 01:06:10;;;;;;;26.70;18.17;;;;;;;-0.19;97.22;99140.44;5013871;28;20181;-73
2021/01/29 01:08:36;;;;;;;24.07;19.13;;;;;;;-0.19;97.34;99135.06;5013850;28;20509;-73
2021/01/29 01:11:02;;;;;;;27.33;19.13;;;;;;;-0.15;97.02;99146.06;5013296;28;20169;-73
2021/01/29 01:13:27;;;;;;;22.30;17.27;;;;;;;-0.12;97.52;99150.91;5013592;28;20200;-73
2021/01/29 01:15:53;;;;;;;28.60;19.40;;;;;;;-0.15;97.34;99148.75;5017542;28;20433;-73
2021/01/29 01:18:18;;;;;;;27.37;18.90;;;;;;;-0.12;96.89;99143.66;5033175;28;20168;-73
2021/01/29 01:20:43;;;;;;;21.27;17.10;;;;;;;-0.11;97.22;99136.41;5033550;28;20178;-73
2021/01/29 01:23:08;;;;;;;24.70;19.40;;;;;;;-0.20;96.84;99130.78;5033447;28;20180;-73
2021/01/29 01:25:34;;;;;;;23.50;18.20;;;;;;;-0.22;97.38;99132.94;5033307;28;20267;-72
2021/01/29 01:27:59;;;;;;;27.23;18.93;;;;;;;-0.20;97.24;99124.59;5033217;28;20168;-74
2021/01/29 01:30:29;;;;;;;26.30;19.77;;;;;;;-0.24;97.43;99120.88;5033326;28;20203;-73
2021/01/29 01:32:55;;;;;;;23.47;18.50;;;;;;;-0.24;97.57;99105.56;5033441;28;20214;-73
2021/01/29 01:35:21;;;;;;;28.00;18.97;;;;;;;-0.24;97.79;99102.88;5033385;28;20895;-73
2021/01/29 01:37:47;;;;;;;22.23;18.27;;;;;;;-0.24;97.29;99102.88;5032957;28;20282;-73
2021/01/29 01:40:14;;;;;;;26.93;19.23;;;;;;;-0.27;97.90;99098.06;5033133;28;20430;-73
2021/01/29 01:42:40;;;;;;;23.50;18.40;;;;;;;-0.25;97.35;99084.38;5033121;28;20421;-73
2021/01/29 01:45:26;;;;;;;22.13;18.53;;;;;;;-0.24;97.58;99081.41;5032916;28;20431;-73
2021/01/29 01:47:54;;;;;;;22.77;17.97;;;;;;;-0.27;97.97;99073.94;5025255;28;20334;-73
2021/01/29 01:50:35;;;;;;;23.03;18.13;;;;;;;-0.31;97.49;99064.78;5033319;28;20433;-73
2021/01/29 01:53:16;;;;;;;22.97;18.13;;;;;;;-0.35;97.36;99063.75;5032684;28;20974;-73
2021/01/29 01:55:44;;;;;;;21.20;18.20;;;;;;;-0.36;97.54;99054.91;5032871;28;20418;-73
2021/01/29 01:58:10;;;;;;;21.57;17.97;;;;;;;-0.42;98.28;99044.47;5032486;28;20411;-73
2021/01/29 02:00:35;;;;;;;19.83;17.33;;;;;;;-0.39;98.24;99035.88;5032667;28;20422;-73
2021/01/29 02:03:06;;;;;;;19.83;17.83;;;;;;;-0.42;98.16;99036.41;5032789;28;20398;-73
2021/01/29 02:05:35;;;;;;;20.70;18.50;;;;;;;-0.37;98.61;99034.50;5032667;28;20182;-73
2021/01/29 02:08:09;;;;;;;22.10;18.20;;;;;;;-0.45;98.31;99032.38;5032391;28;20418;-73
2021/01/29 02:10:34;;;;;;;22.27;18.73;;;;;;;-0.49;98.64;99027.84;5032110;28;20411;-73
2021/01/29 02:13:03;;;;;;;23.17;16.83;;;;;;;-0.40;98.05;99015.47;5032510;28;20466;-74
2021/01/29 02:15:36;;;;;;;21.17;17.43;;;;;;;-0.38;98.21;99005.28;5031196;28;20659;-73
2021/01/29 02:18:01;;;;;;;21.47;18.90;;;;;;;-0.36;98.12;98989.69;5032192;28;20478;-73
2021/01/29 02:21:02;;;;;;;22.40;17.03;;;;;;;-0.43;97.83;98998.06;5032620;28;20932;-73
2021/01/29 02:23:42;;;;;;;23.27;18.43;;;;;;;-0.53;98.40;98991.94;5008759;28;20187;-73
2021/01/29 02:27:04;;;;;;;24.87;18.10;;;;;;;-0.50;98.86;98980.66;5032016;28;20407;-74
2021/01/29 02:29:48;;;;;;;20.10;18.07;;;;;;;-0.52;98.10;98980.13;4990304;28;20428;-73
2021/01/29 02:32:23;;;;;;;20.03;17.80;;;;;;;-0.60;98.49;98968.88;4989914;28;20467;-73
2021/01/29 02:35:25;;;;;;;26.10;16.57;;;;;;;-0.45;98.25;98975.25;5004680;28;20925;-73
2021/01/29 02:38:20;;;;;;;20.30;18.10;;;;;;;-0.60;98.50;98963.50;5012053;28;20423;-73
2021/01/29 02:41:05;;;;;;;25.03;18.90;;;;;;;-0.62;98.46;98951.44;5012223;28;20424;-73
2021/01/29 02:43:50;;;;;;;23.90;19.23;;;;;;;-0.58;98.27;98952.50;5012257;28;20511;-73
2021/01/29 02:46:38;;;;;;;25.83;19.20;;;;;;;-0.63;98.52;98945.28;5011651;28;20494;-73
2021/01/29 02:49:21;;;;;;;19.80;17.17;;;;;;;-0.69;98.34;98941.03;5012106;28;21011;-73
2021/01/29 02:51:47;;;;;;;22.13;17.10;;;;;;;-0.64;97.97;98929.47;5011897;28;20435;-73
2021/01/29 02:54:21;;;;;;;22.40;18.83;;;;;;;-0.69;98.45;98916.09;5011913;28;20463;-73
2021/01/29 02:56:54;;;;;;;22.97;18.77;;;;;;;-0.73;98.93;98906.97;5010893;28;20191;-73
2021/01/29 02:59:51;;;;;;;29.10;20.37;;;;;;;-0.73;98.75;98886.34;5011788;28;20411;-73
2021/01/29 03:02:31;;;;;;;22.47;18.13;;;;;;;-0.73;98.89;98867.56;5011465;28;20477;-73
2021/01/29 03:05:10;;;;;;;28.13;19.33;;;;;;;-0.79;98.93;98854.47;5011480;28;20407;-73
2021/01/29 03:07:47;;;;;;;22.57;17.73;;;;;;;-0.76;98.68;98856.59;5010041;28;20863;-72
2021/01/29 03:10:24;;;;;;;22.10;18.77;;;;;;;-0.78;98.58;98842.66;5011657;28;20423;-73
2021/01/29 03:12:56;;;;;;;22.47;18.37;;;;;;;-0.76;98.60;98848.56;5011464;28;20548;-73
2021/01/29 03:15:49;;;;;;;25.17;19.40;;;;;;;-0.78;99.11;98840.00;5011666;28;20596;-73
2021/01/29 03:18:47;;;;;;;27.23;19.43;;;;;;;-0.87;98.54;98834.38;5011315;28;20954;-73
2021/01/29 03:21:17;;;;;;;27.83;21.43;;;;;;;-0.82;99.13;98830.91;5011248;28;20634;-73
2021/01/29 03:23:48;;;;;;;26.63;20.10;;;;;;;-0.79;99.31;98833.03;5011561;28;20666;-73
2021/01/29 03:26:21;;;;;;;28.33;20.90;;;;;;;-0.82;98.58;98818.31;5009755;28;20463;-73
2021/01/29 03:28:53;;;;;;;26.67;21.40;;;;;;;-0.81;98.99;98814.53;5011265;28;20499;-73
2021/01/29 03:31:22;;;;;;;25.17;20.73;;;;;;;-0.83;98.75;98811.34;5011662;28;20427;-74
2021/01/29 03:33:55;;;;;;;26.70;21.27;;;;;;;-0.84;99.18;98801.69;5011352;28;20625;-73
2021/01/29 03:36:23;;;;;;;33.77;22.17;;;;;;;-0.83;99.17;98797.13;5010897;28;20912;-73
2021/01/29 03:38:59;;;;;;;25.17;20.40;;;;;;;-0.82;98.83;98782.66;5011780;28;20474;-73
2021/01/29 03:41:30;;;;;;;28.70;21.93;;;;;;;-0.86;98.84;98777.06;5011278;28;20461;-73
2021/01/29 03:44:23;;;;;;;27.60;22.07;;;;;;;-0.88;99.30;98776.50;5011343;28;20507;-74
2021/01/29 03:47:18;;;;;;;29.37;21.43;;;;;;;-0.90;98.67;98775.97;5016070;28;20419;-73
2021/01/29 03:49:53;;;;;;;35.30;23.13;;;;;;;-0.91;99.57;98777.06;5017694;28;20498;-74
2021/01/29 03:52:40;;;;;;;33.47;21.97;;;;;;;-0.89;98.90;98780.25;5012299;28;20465;-74
2021/01/29 03:55:18;;;;;;;28.50;20.80;;;;;;;-0.85;99.24;98773.28;5010237;28;20438;-74
2021/01/29 03:58:12;;;;;;;36.50;21.07;;;;;;;-0.83;98.89;98776.50;5011245;28;20423;-74
2021/01/29 04:00:56;;;;;;;27.07;20.73;;;;;;;-0.86;98.89;98762.84;5030809;28;20422;-74
2021/01/29 04:03:46;;;;;;;24.40;20.67;;;;;;;-0.84;99.29;98758.00;5030890;28;20449;-74
2021/01/29 04:06:25;;;;;;;26.30;20.20;;;;;;;-0.79;98.69;98758.75;5029001;28;20462;-74
2021/01/29 04:09:18;;;;;;;28.10;21.93;;;;;;;-0.79;99.09;98752.59;5030754;28;20467;-74
2021/01/29 04:11:50;;;;;;;24.00;21.30;;;;;;;-0.86;98.79;98726.13;5030042;28;20422;-73
2021/01/29 04:14:31;;;;;;;31.60;22.23;;;;;;;-0.88;99.22;98730.13;5030409;28;20481;-74
2021/01/29 04:16:59;;;;;;;33.63;23.27;;;;;;;-0.92;98.77;98719.19;5030248;28;20450;-74
2021/01/29 04:19:29;;;;;;;38.33;24.27;;;;;;;-0.91;99.19;98708.16;5030592;28;20544;-74
2021/01/29 04:22:24;;;;;;;32.63;23.50;;;;;;;-0.88;99.05;98706.00;5030619;28;20414;-74
2021/01/29 04:24:57;;;;;;;33.13;23.17;;;;;;;-0.90;99.02;98699.06;5029842;28;20577;-74
2021/01/29 04:27:28;;;;;;;32.13;23.57;;;;;;;-0.88;99.60;98688.03;5030106;28;20506;-73
2021/01/29 04:30:10;;;;;;;37.60;25.47;;;;;;;-0.90;99.13;98690.22;5030459;28;20461;-74
2021/01/29 04:32:43;;;;;;;35.70;25.47;;;;;;;-0.88;99.24;98689.94;5028905;28;20462;-74
2021/01/29 04:35:11;;;;;;;45.97;25.93;;;;;;;-0.88;99.73;98673.84;5030272;28;21079;-74
2021/01/29 04:37:44;;;;;;;39.77;24.07;;;;;;;-0.84;99.25;98672.22;5029961;28;20411;-74
2021/01/29 04:40:48;;;;;;;34.60;25.33;;;;;;;-0.84;99.74;98667.66;5028957;28;20477;-73
2021/01/29 04:44:01;;;;;;;33.70;24.27;;;;;;;-0.76;99.70;98663.56;5030323;28;20453;-74
2021/01/29 04:46:52;;;;;;;34.90;24.93;;;;;;;-0.78;99.66;98655.00;4998180;28;20784;-74
2021/01/29 04:49:20;;;;;;;37.17;24.13;;;;;;;-0.76;99.48;98653.63;5030301;28;20431;-74
2021/01/29 04:52:09;;;;;;;31.07;22.87;;;;;;;-0.71;99.52;98645.56;5030028;28;20427;-75
2021/01/29 04:54:56;;;;;;;28.27;22.43;;;;;;;-0.73;99.28;98636.97;5030128;28;20899;-74
2021/01/29 04:57:48;;;;;;;29.50;22.93;;;;;;;-0.65;98.76;98638.28;5029705;28;20426;-74
2021/01/29 05:00:38;;;;;;;30.63;20.80;;;;;;;-0.61;98.96;98628.56;5030188;28;20605;-74
2021/01/29 05:03:37;;;;;;;22.23;19.83;;;;;;;-0.52;98.93;98628.78;5030168;28;20519;-73
2021/01/29 05:06:05;;;;;;;25.33;21.23;;;;;;;-0.60;98.13;98617.56;5029972;28;20415;-74
2021/01/29 05:08:45;;;;;;;24.77;21.30;;;;;;;-0.58;98.70;98619.94;5028531;28;20803;-74
2021/01/29 05:11:21;;;;;;;23.97;19.77;;;;;;;-0.56;98.08;98614.34;5028134;28;20976;-74
2021/01/29 05:13:59;;;;;;;27.87;20.77;;;;;;;-0.65;98.48;98606.09;5028535;28;20481;-74
2021/01/29 05:16:56;;;;;;;24.00;19.73;;;;;;;-0.63;98.22;98603.94;5029564;28;20418;-74
2021/01/29 05:19:48;;;;;;;24.27;21.50;;;;;;;-0.64;98.02;98588.91;5032099;28;20415;-74
2021/01/29 05:22:40;;;;;;;23.43;20.03;;;;;;;-0.61;98.09;98588.34;5033495;28;20434;-73
2021/01/29 05:25:34;;;;;;;23.70;20.00;;;;;;;-0.67;97.83;98590.28;5033449;28;20419;-74
2021/01/29 05:28:17;;;;;;;22.20;19.63;;;;;;;-0.67;98.17;98587.59;5012939;28;20522;-73
2021/01/29 05:31:20;;;;;;;22.93;20.60;;;;;;;-0.64;97.87;98564.78;5013763;28;20424;-74
2021/01/29 05:34:05;;;;;;;23.30;19.17;;;;;;;-0.67;98.51;98563.47;5013421;28;20517;-74
2021/01/29 05:37:02;;;;;;;22.50;19.90;;;;;;;-0.66;97.84;98549.00;5012668;28;20986;-74
2021/01/29 05:40:03;;;;;;;25.73;20.47;;;;;;;-0.65;98.38;98547.91;5013429;28;20471;-75
2021/01/29 05:42:44;;;;;;;26.43;20.03;;;;;;;-0.63;98.38;98550.28;5012099;28;20778;-74
2021/01/29 05:45:46;;;;;;;22.57;19.90;;;;;;;-0.59;97.83;98532.53;5013382;28;20419;-74
2021/01/29 05:48:17;;;;;;;25.07;21.23;;;;;;;-0.52;98.28;98542.94;5012848;28;20407;-74
2021/01/29 05:50:56;;;;;;;24.73;21.80;;;;;;;-0.57;98.08;98530.41;5013333;28;20427;-74
2021/01/29 05:53:39;;;;;;;23.87;19.70;;;;;;;-0.55;97.93;98527.44;5013377;28;20569;-73
2021/01/29 05:56:30;;;;;;;26.03;21.57;;;;;;;-0.64;98.07;98520.00;5012655;28;20420;-74
2021/01/29 05:59:32;;;;;;;26.77;21.60;;;;;;;-0.67;98.59;98512.53;5013020;28;20416;-74
2021/01/29 06:02:25;;;;;;;21.67;19.43;;;;;;;-0.71;98.70;98508.03;5013004;28;20424;-73
2021/01/29 06:05:08;;;;;;;31.73;21.83;;;;;;;-0.73;98.43;98504.81;5012842;28;20412;-73
2021/01/29 06:08:02;;;;;;;33.20;22.87;;;;;;;-0.74;98.64;98504.03;5012826;28;20451;-74
2021/01/29 06:10:30;;;;;;;34.87;24.60;;;;;;;-0.78;99.23;98497.63;5011950;28;20534;-73
2021/01/29 06:13:34;;;;;;;42.70;26.43;;;;;;;-0.81;99.33;98484.81;5012725;28;20994;-73
2021/01/29 06:16:32;;;;;;;40.43;26.80;;;;;;;-0.82;99.02;98483.22;5011276;28;20425;-73
2021/01/29 06:19:00;;;;;;;41.43;26.93;;;;;;;-0.85;99.76;98473.06;5012735;28;20966;-74
2021/01/29 06:21:31;;;;;;;46.63;28.23;;;;;;;-0.85;99.25;98470.38;5012406;28;20489;-73
2021/01/29 06:24:14;;;;;;;48.13;28.87;;;;;;;-0.86;99.57;98468.78;5012752;28;20419;-73
2021/01/29 06:27:20;;;;;;;45.40;27.20;;;;;;;-0.86;99.97;98459.97;5011959;28;20432;-74
2021/01/29 06:30:26;;;;;;;45.60;28.23;;;;;;;-0.84;99.86;98445.19;5011541;28;20762;-74
2021/01/29 06:32:57;;;;;;;45.27;28.00;;;;;;;-0.82;100.00;98442.22;5012304;28;20815;-74
2021/01/29 06:36:02;;;;;;;47.10;29.77;;;;;;;-0.79;99.84;98439.75;5016789;28;20424;-73
2021/01/29 06:38:34;;;;;;;48.63;26.50;;;;;;;-0.76;99.53;98433.00;5031914;28;20443;-74
2021/01/29 06:41:27;;;;;;;46.00;27.10;;;;;;;-0.76;99.47;98430.31;5032106;28;20433;-73
2021/01/29 06:44:05;;;;;;;45.97;27.20;;;;;;;-0.78;99.67;98411.06;5030773;28;20423;-74
2021/01/29 06:46:52;;;;;;;54.10;28.93;;;;;;;-0.77;99.41;98420.69;5031370;28;20414;-74
2021/01/29 06:49:23;;;;;;;46.13;24.87;;;;;;;-0.71;100.00;98406.97;5031964;28;20521;-74
2021/01/29 06:52:25;;;;;;;59.03;28.83;;;;;;;-0.73;99.36;98414.47;5031701;28;20477;-74
2021/01/29 06:55:12;;;;;;;51.70;29.73;;;;;;;-0.77;99.45;98408.09;5031639;28;20422;-74
2021/01/29 06:58:11;;;;;;;58.83;30.77;;;;;;;-0.77;99.52;98405.41;5029987;28;20779;-74
2021/01/29 07:00:36;;;;;;;54.23;30.33;;;;;;;-0.75;100.00;98407.78;5031797;28;20741;-74
2021/01/29 07:03:38;;;;;;;58.80;30.93;;;;;;;-0.75;99.53;98397.88;5031604;28;20453;-75
2021/01/29 07:06:30;;;;;;;54.63;29.43;;;;;;;-0.73;99.96;98389.53;5031485;28;20706;-74
2021/01/29 07:09:18;;;;;;;58.57;29.97;;;;;;;-0.71;100.00;98382.81;5031928;28;20446;-74
2021/01/29 07:11:58;;;;;;;54.50;29.50;;;;;;;-0.71;99.57;98382.81;5030781;28;20430;-74
2021/01/29 07:15:11;;;;;;;66.87;31.43;;;;;;;-0.73;100.00;98373.44;5030152;28;20462;-74
2021/01/29 07:18:01;;;;;;;67.37;32.17;;;;;;;-0.75;99.60;98365.69;5021426;28;20427;-73
2021/01/29 07:20:39;;;;;;;57.80;31.70;;;;;;;-0.72;100.00;98367.03;5031485;28;20411;-73
2021/01/29 07:23:19;;;;;;;66.07;33.50;;;;;;;-0.73;99.58;98360.84;5031287;28;20818;-73
2021/01/29 07:26:05;;;;;;;61.10;32.50;;;;;;;-0.70;100.00;98371.00;5031227;28;20501;-73
2021/01/29 07:28:40;;;;;;;65.43;31.73;;;;;;;-0.71;99.84;98350.66;5030947;28;20414;-73
2021/01/29 07:31:31;;;;;;;73.53;35.77;;;;;;;-0.65;100.00;98357.53;5031370;28;20424;-75
2021/01/29 07:34:10;;;;;;;68.57;33.40;;;;;;;-0.65;99.76;98354.84;5030882;28;20473;-74
2021/01/29 07:36:39;;;;;;;70.57;34.03;;;;;;;-0.65;99.60;98354.84;5030607;28;20911;-74
2021/01/29 07:39:22;;;;;;;66.97;32.73;;;;;;;-0.62;99.88;98356.16;5031028;28;20459;-73
2021/01/29 07:42:07;;;;;;;71.37;35.97;;;;;;;-0.66;100.00;98350.56;5029921;28;20426;-74
2021/01/29 07:44:38;;;;;;;67.40;32.10;;;;;;;-0.65;100.00;98338.75;5011078;28;20423;-73
2021/01/29 07:47:32;;;;;;;78.97;37.20;;;;;;;-0.65;99.54;98348.69;5010843;28;20424;-74
2021/01/29 07:50:16;;;;;;;79.67;37.33;;;;;;;-0.65;99.89;98338.75;5009829;28;20527;-73
2021/01/29 07:53:01;;;;;;;69.40;34.53;;;;;;;-0.66;100.00;98337.16;5009669;28;20479;-74
2021/01/29 07:55:30;;;;;;;76.83;34.93;;;;;;;-0.63;99.82;98330.44;5010957;28;20458;-74
2021/01/29 07:58:19;;;;;;;80.87;41.40;;;;;;;-0.64;100.00;98328.84;5010614;28;20426;-73
2021/01/29 08:01:06;;;;;;;85.90;37.80;;;;;;;-0.62;99.74;98327.44;5010905;28;20434;-73
2021/01/29 08:03:56;;;;;;;77.93;35.67;;;;;;;-0.58;100.00;98324.19;5010958;28;20443;-73
2021/01/29 08:06:32;;;;;;;79.53;37.80;;;;;;;-0.61;99.94;98328.25;5010345;28;20415;-73
2021/01/29 08:09:14;;;;;;;87.67;38.73;;;;;;;-0.62;100.00;98324.78;5010982;28;20417;-73
2021/01/29 08:11:42;;;;;;;86.93;37.10;;;;;;;-0.61;100.00;98329.03;5009920;28;20426;-73
2021/01/29 08:14:20;;;;;;;85.80;36.63;;;;;;;-0.56;100.00;98330.88;5010451;28;20478;-73
2021/01/29 08:16:58;;;;;;;77.97;34.37;;;;;;;-0.55;100.00;98320.94;5009047;28;20971;-73
2021/01/29 08:19:42;;;;;;;81.47;36.67;;;;;;;-0.56;100.00;98322.81;5010684;28;20477;-73
2021/01/29 08:22:45;;;;;;;84.30;37.80;;;;;;;-0.57;100.00;98315.88;5010646;28;20473;-73
2021/01/29 08:25:34;;;;;;;81.53;36.23;;;;;;;-0.57;100.00;98317.75;5010743;28;20922;-73
2021/01/29 08:28:06;;;;;;;81.80;37.37;;;;;;;-0.58;100.00;98314.25;5010337;28;20443;-73
2021/01/29 08:30:55;;;;;;;77.10;34.27;;;;;;;-0.55;100.00;98315.56;5010573;28;20411;-73
2021/01/29 08:33:44;;;;;;;77.97;34.07;;;;;;;-0.56;100.00;98311.31;5010697;28;20558;-73
2021/01/29 08:36:34;;;;;;;79.37;36.03;;;;;;;-0.55;100.00;98316.38;5003480;28;20419;-73
2021/01/29 08:39:16;;;;;;;77.80;34.70;;;;;;;-0.55;100.00;98313.69;5010399;28;20412;-76
2021/01/29 08:41:58;;;;;;;85.60;37.33;;;;;;;-0.54;100.00;98306.44;5010439;28;20442;-79
2021/01/29 08:44:43;;;;;;;83.07;34.43;;;;;;;-0.53;100.00;98300.00;5022799;28;20438;-72
2021/01/29 08:47:17;;;;;;;77.63;38.33;;;;;;;-0.55;100.00;98304.84;5029627;28;20438;-72
2021/01/29 08:49:42;;;;;;;74.80;35.87;;;;;;;-0.55;100.00;98296.81;5030087;28;20450;-74
2021/01/29 08:52:26;;;;;;;83.50;36.93;;;;;;;-0.56;100.00;98285.28;5030010;28;20500;-73
2021/01/29 08:55:25;;;;;;;82.33;37.97;;;;;;;-0.57;100.00;98288.25;5033176;28;20762;-73
2021/01/29 08:58:20;;;;;;;76.80;36.50;;;;;;;-0.55;100.00;98294.13;5033648;28;20421;-74
2021/01/29 09:00:45;;;;;;;77.90;36.33;;;;;;;-0.53;100.00;98289.25;5033829;28;20822;-73
2021/01/29 09:03:24;;;;;;;81.27;36.90;;;;;;;-0.51;100.00;98297.81;5033716;28;20435;-74
2021/01/29 09:06:03;;;;;;;77.60;37.60;;;;;;;-0.52;100.00;98285.50;5033689;28;20175;-73
2021/01/29 09:08:29;;;;;;;79.50;36.47;;;;;;;-0.53;100.00;98291.94;5032178;28;20496;-73
2021/01/29 09:11:06;;;;;;;72.17;35.03;;;;;;;-0.54;100.00;98290.34;5032908;28;21104;-74
2021/01/29 09:13:34;;;;;;;71.57;33.70;;;;;;;-0.53;100.00;98291.94;5009673;28;20295;-74
2021/01/29 09:16:17;;;;;;;67.20;34.17;;;;;;;-0.53;100.00;98281.22;4994188;28;20507;-73
2021/01/29 09:18:51;;;;;;;74.03;34.93;;;;;;;-0.53;100.00;98289.25;4994005;28;20404;-72
2021/01/29 09:21:16;;;;;;;69.63;32.77;;;;;;;-0.54;100.00;98285.00;4994075;28;20413;-72
2021/01/29 09:24:04;;;;;;;68.40;33.37;;;;;;;-0.52;100.00;98286.28;4993922;28;20429;-72
2021/01/29 09:26:36;;;;;;;68.97;34.07;;;;;;;-0.53;100.00;98283.91;4993727;28;20169;-72
2021/01/29 09:29:13;;;;;;;63.93;33.17;;;;;;;-0.54;100.00;98276.94;4992807;28;20432;-73
2021/01/29 09:31:40;;;;;;;75.47;35.87;;;;;;;-0.56;100.00;98273.75;4992911;28;20879;-72
2021/01/29 09:34:14;;;;;;;71.83;33.37;;;;;;;-0.57;100.00;98272.97;4993827;28;20815;-73
2021/01/29 09:36:49;;;;;;;71.03;34.07;;;;;;;-0.56;100.00;98276.44;4993624;28;20772;-72
2021/01/29 09:39:26;;;;;;;60.47;30.93;;;;;;;-0.55;100.00;98272.66;4993632;28;20427;-72
2021/01/29 09:42:07;;;;;;;66.17;32.37;;;;;;;-0.56;100.00;98277.25;4993828;28;20424;-72
2021/01/29 09:44:58;;;;;;;72.10;33.27;;;;;;;-0.57;100.00;98264.13;4993825;28;20421;-72
2021/01/29 09:47:26;;;;;;;63.20;28.80;;;;;;;-0.54;100.00;98268.91;4993311;28;20439;-72
2021/01/29 09:50:00;;;;;;;66.00;31.73;;;;;;;-0.56;100.00;98263.03;4993460;28;20417;-72
2021/01/29 09:53:01;;;;;;;68.57;31.73;;;;;;;-0.57;100.00;98267.59;4993366;28;20444;-73
2021/01/29 09:55:33;;;;;;;68.33;33.23;;;;;;;-0.57;100.00;98269.50;4971336;28;20425;-74
2021/01/29 09:58:07;;;;;;;66.67;33.03;;;;;;;-0.58;100.00;98270.56;4989210;28;20522;-73
2021/01/29 10:00:35;;;;;;;67.93;33.33;;;;;;;-0.58;100.00;98275.91;5030824;28;20866;-72
2021/01/29 10:03:30;;;;;;;67.83;33.23;;;;;;;-0.58;100.00;98282.06;5038142;28;20497;-71
2021/01/29 10:06:00;;;;;;;69.53;33.50;;;;;;;-0.54;100.00;98276.94;5040172;28;20415;-72
2021/01/29 10:08:28;;;;;;;64.93;31.93;;;;;;;-0.54;100.00;98280.41;5032538;28;20418;-72
2021/01/29 10:11:11;;;;;;;62.53;33.33;;;;;;;-0.54;100.00;98272.38;5032045;28;20934;-72
2021/01/29 10:14:02;;;;;;;71.00;32.90;;;;;;;-0.52;100.00;98262.16;5032796;28;20466;-72
2021/01/29 10:16:33;;;;;;;64.23;31.60;;;;;;;-0.50;100.00;98257.28;5032001;28;20484;-73
2021/01/29 10:19:12;;;;;;;70.67;32.23;;;;;;;-0.52;100.00;98253.31;5032434;28;20750;-73
2021/01/29 10:22:01;;;;;;;63.27;31.80;;;;;;;-0.51;100.00;98255.69;5025819;28;20427;-73
2021/01/29 10:24:48;;;;;;;53.27;27.27;;;;;;;-0.47;100.00;98245.97;5022496;28;20463;-73
2021/01/29 10:27:35;;;;;;;54.83;27.87;;;;;;;-0.48;100.00;98236.34;4992453;28;20429;-73
2021/01/29 10:30:27;;;;;;;59.60;30.23;;;;;;;-0.48;100.00;98232.84;5013742;28;21041;-74
2021/01/29 10:33:19;;;;;;;57.00;30.90;;;;;;;-0.49;100.00;98234.75;5031866;28;20471;-73
2021/01/29 10:36:00;;;;;;;59.80;31.23;;;;;;;-0.50;100.00;98229.69;5026067;28;20434;-73
2021/01/29 10:38:43;;;;;;;72.63;34.37;;;;;;;-0.50;100.00;98233.16;5031765;28;20415;-73
2021/01/29 10:41:25;;;;;;;69.77;35.13;;;;;;;-0.52;100.00;98246.06;5031966;28;20509;-73
2021/01/29 10:44:00;;;;;;;60.63;30.33;;;;;;;-0.48;100.00;98241.69;5031908;28;20407;-73
2021/01/29 10:46:38;;;;;;;69.03;34.77;;;;;;;-0.53;100.00;98238.31;5031468;28;20840;-73
2021/01/29 10:49:53;;;;;;;71.43;32.67;;;;;;;-0.48;100.00;98249.75;5012674;28;20449;-72
2021/01/29 10:52:41;;;;;;;60.07;28.97;;;;;;;-0.44;100.00;98263.34;5009929;28;20443;-73
2021/01/29 10:55:22;;;;;;;51.83;28.17;;;;;;;-0.41;100.00;98258.22;5012080;28;20437;-73
2021/01/29 10:58:25;;;;;;;49.43;27.93;;;;;;;-0.24;100.00;98268.41;5007445;28;20419;-72
2021/01/29 11:00:54;;;;;;;42.07;26.73;;;;;;;-0.13;100.00;98266.34;5011876;28;20419;-73
2021/01/29 11:03:39;;;;;;;35.50;24.00;;;;;;;-0.18;100.00;98261.06;5015772;28;20481;-72
2021/01/29 11:06:09;;;;;;;42.07;27.07;;;;;;;-0.18;100.00;98259.16;5031210;28;20445;-73
2021/01/29 11:08:42;;;;;;;37.27;25.67;;;;;;;-0.20;100.00;98257.88;5031522;28;20561;-72
2021/01/29 11:11:17;;;;;;;36.67;25.60;;;;;;;-0.24;100.00;98263.03;5029199;28;20426;-73
2021/01/29 11:14:12;;;;;;;38.33;23.93;;;;;;;-0.18;100.00;98256.47;5031374;28;20555;-73
2021/01/29 11:17:15;;;;;;;34.40;24.57;;;;;;;-0.28;99.96;98248.63;5024125;28;20431;-72
2021/01/29 11:19:45;;;;;;;40.97;25.37;;;;;;;-0.31;99.96;98246.50;5020174;28;20521;-72
2021/01/29 11:22:14;;;;;;;33.83;25.50;;;;;;;-0.31;100.00;98246.50;5011427;28;20458;-73
2021/01/29 11:24:44;;;;;;;36.57;26.77;;;;;;;-0.28;99.81;98245.94;5031107;28;20837;-72
2021/01/29 11:27:21;;;;;;;40.30;26.60;;;;;;;-0.29;99.83;98260.41;5030923;28;20830;-72
2021/01/29 11:30:00;;;;;;;42.73;26.67;;;;;;;-0.22;100.00;98273.47;5029771;28;20429;-72
2021/01/29 11:32:57;;;;;;;38.07;26.40;;;;;;;-0.19;99.92;98289.78;5029644;28;20433;-72
2021/01/29 11:35:38;;;;;;;32.73;25.20;;;;;;;-0.15;100.00;98269.31;5031166;28;20501;-72
2021/01/29 11:38:09;;;;;;;34.63;25.97;;;;;;;-0.12;99.68;98274.09;5030684;28;20418;-74
2021/01/29 11:40:41;;;;;;;33.10;25.47;;;;;;;-0.08;99.81;98279.66;5030803;28;20509;-74
2021/01/29 11:43:31;;;;;;;35.63;22.60;;;;;;;-0.12;99.38;98271.41;5031165;28;20462;-72
2021/01/29 11:46:12;;;;;;;28.17;23.17;;;;;;;0.02;99.41;98270.66;5031161;28;20422;-72
2021/01/29 11:48:51;;;;;;;24.10;21.57;;;;;;;-0.02;99.42;98263.16;5017977;28;20438;-72
2021/01/29 11:51:45;;;;;;;28.07;22.87;;;;;;;-0.17;99.54;98262.63;5011196;28;20716;-72
2021/01/29 11:54:16;;;;;;;28.60;23.63;;;;;;;-0.21;99.28;98251.72;4989750;28;20479;-72
2021/01/29 11:56:50;;;;;;;30.20;23.73;;;;;;;-0.25;99.50;98244.56;5010669;28;20424;-73
2021/01/29 11:59:31;;;;;;;37.40;25.03;;;;;;;-0.32;99.67;98232.31;5011294;28;20419;-75
2021/01/29 12:02:13;;;;;;;36.80;25.33;;;;;;;-0.32;99.99;98223.47;5011021;28;20892;-72
2021/01/29 12:05:06;;;;;;;36.80;25.73;;;;;;;-0.35;99.71;98211.44;5009594;28;20432;-73
2021/01/29 12:07:42;;;;;;;37.80;23.50;;;;;;;-0.24;99.72;98217.44;5010657;28;20458;-73
2021/01/29 12:10:27;;;;;;;40.80;27.00;;;;;;;-0.23;100.00;98219.00;5010702;28;20423;-73